sensor_id;sensor_type;location;lat;lon;timestamp;pressure;altitude;pressure_sealevel;temperature;humidity
16690;BME280;8458;52.220;9.884;2023-10-19T00:00:49;99260.13;;;8.55;100.00
16690;BME280;8458;52.220;9.884;2023-10-19T00:03:16;99251.56;;;8.52;100.00
16690;BME280;8458;52.220;9.884;2023-10-19T00:05:44;99247.72;;;8.42;100.00
16690;BME280;8458;52.220;9.884;2023-10-19T00:08:12;99243.34;;;8.36;100.00
16690;BME280;8458;52.220;9.884;2023-10-19T00:10:42;99247.81;;;8.27;100.00
16690;BME280;8458;52.220;9.884;2023-10-19T00:13:11;99247.56;;;8.23;100.00
16690;BME280;8458;52.220;9.884;2023-10-19T00:15:38;99240.41;;;8.17;100.00
16690;BME280;8458;52.220;9.884;2023-10-19T00:18:06;99237.94;;;8.16;100.00
16690;BME280;8458;52.220;9.884;2023-10-19T00:20:48;99238.75;;;8.16;100.00
16690;BME280;8458;52.220;9.884;2023-10-19T00:23:18;99237.41;;;8.14;100.00
16690;BME280;8458;52.220;9.884;2023-10-19T00:25:47;99231.31;;;8.12;100.00
16690;BME280;8458;52.220;9.884;2023-10-19T00:28:16;99224.97;;;8.11;100.00
16690;BME280;8458;52.220;9.884;2023-10-19T00:30:43;99219.19;;;8.13;100.00
16690;BME280;8458;52.220;9.884;2023-10-19T00:33:10;99217.50;;;8.12;100.00
16690;BME280;8458;52.220;9.884;2023-10-19T00:35:43;99221.41;;;8.11;100.00
16690;BME280;8458;52.220;9.884;2023-10-19T00:38:17;99211.47;;;8.10;100.00
16690;BME280;8458;52.220;9.884;2023-10-19T00:41:05;99206.47;;;8.12;100.00
16690;BME280;8458;52.220;9.884;2023-10-19T00:43:33;99201.50;;;8.14;100.00
16690;BME280;8458;52.220;9.884;2023-10-19T00:46:01;99198.19;;;8.12;100.00
16690;BME280;8458;52.220;9.884;2023-10-19T00:48:30;99197.09;;;8.13;100.00
16690;BME280;8458;52.220;9.884;2023-10-19T00:50:58;99199.59;;;8.09;100.00
16690;BME280;8458;52.220;9.884;2023-10-19T00:53:37;99198.19;;;8.12;100.00
16690;BME280;8458;52.220;9.884;2023-10-19T00:56:06;99199.84;;;8.13;100.00
16690;BME280;8458;52.220;9.884;2023-10-19T00:58:35;99188.78;;;8.18;100.00
16690;BME280;8458;52.220;9.884;2023-10-19T01:01:05;99190.47;;;8.14;100.00
16690;BME280;8458;52.220;9.884;2023-10-19T01:03:32;99176.38;;;8.15;100.00
16690;BME280;8458;52.220;9.884;2023-10-19T01:06:03;99175.81;;;8.18;100.00
16690;BME280;8458;52.220;9.884;2023-10-19T01:08:37;99165.34;;;8.15;100.00
16690;BME280;8458;52.220;9.884;2023-10-19T01:11:08;99161.72;;;8.15;100.00
16690;BME280;8458;52.220;9.884;2023-10-19T01:13:36;99162.31;;;8.12;100.00
16690;BME280;8458;52.220;9.884;2023-10-19T01:16:03;99156.25;;;8.10;100.00
16690;BME280;8458;52.220;9.884;2023-10-19T01:18:30;99162.59;;;8.10;100.00
16690;BME280;8458;52.220;9.884;2023-10-19T01:20:58;99152.38;;;8.11;100.00
16690;BME280;8458;52.220;9.884;2023-10-19T01:23:29;99148.81;;;8.05;100.00
16690;BME280;8458;52.220;9.884;2023-10-19T01:25:57;99142.50;;;8.04;100.00
16690;BME280;8458;52.220;9.884;2023-10-19T01:28:34;99137.81;;;8.00;100.00
16690;BME280;8458;52.220;9.884;2023-10-19T01:31:14;99135.91;;;7.95;100.00
16690;BME280;8458;52.220;9.884;2023-10-19T01:33:42;99132.59;;;7.98;100.00
16690;BME280;8458;52.220;9.884;2023-10-19T01:36:09;99116.31;;;7.97;100.00
16690;BME280;8458;52.220;9.884;2023-10-19T01:38:51;99116.59;;;7.95;100.00
16690;BME280;8458;52.220;9.884;2023-10-19T01:41:19;99118.50;;;7.95;100.00
16690;BME280;8458;52.220;9.884;2023-10-19T01:43:49;99106.13;;;7.92;100.00
16690;BME280;8458;52.220;9.884;2023-10-19T01:46:16;99100.09;;;7.85;100.00
16690;BME280;8458;52.220;9.884;2023-10-19T01:48:50;99103.41;;;7.82;100.00
16690;BME280;8458;52.220;9.884;2023-10-19T01:51:20;99084.41;;;7.80;100.00
16690;BME280;8458;52.220;9.884;2023-10-19T01:53:48;99076.41;;;7.79;100.00
16690;BME280;8458;52.220;9.884;2023-10-19T01:56:16;99074.50;;;7.74;100.00
16690;BME280;8458;52.220;9.884;2023-10-19T01:58:45;99062.13;;;7.71;100.00
16690;BME280;8458;52.220;9.884;2023-10-19T02:01:12;99054.94;;;7.70;100.00
16690;BME280;8458;52.220;9.884;2023-10-19T02:03:47;99050.53;;;7.69;100.00
16690;BME280;8458;52.220;9.884;2023-10-19T02:06:14;99055.50;;;7.67;100.00
16690;BME280;8458;52.220;9.884;2023-10-19T02:08:45;99047.28;;;7.62;100.00
16690;BME280;8458;52.220;9.884;2023-10-19T02:11:14;99048.94;;;7.58;100.00
16690;BME280;8458;52.220;9.884;2023-10-19T02:13:44;99048.41;;;7.56;100.00
16690;BME280;8458;52.220;9.884;2023-10-19T02:16:12;99045.38;;;7.58;100.00
16690;BME280;8458;52.220;9.884;2023-10-19T02:18:37;99041.47;;;7.59;100.00
16690;BME280;8458;52.220;9.884;2023-10-19T02:21:04;99047.28;;;7.62;100.00
16690;BME280;8458;52.220;9.884;2023-10-19T02:23:31;99036.78;;;7.64;100.00
16690;BME280;8458;52.220;9.884;2023-10-19T02:25:59;99027.94;;;7.67;100.00
16690;BME280;8458;52.220;9.884;2023-10-19T02:28:26;99029.59;;;7.68;100.00
16690;BME280;8458;52.220;9.884;2023-10-19T02:30:57;99024.34;;;7.67;100.00
16690;BME280;8458;52.220;9.884;2023-10-19T02:33:23;99019.38;;;7.69;100.00
16690;BME280;8458;52.220;9.884;2023-10-19T02:35:51;99011.38;;;7.67;100.00
16690;BME280;8458;52.220;9.884;2023-10-19T02:38:17;98997.06;;;7.65;100.00
16690;BME280;8458;52.220;9.884;2023-10-19T02:40:43;99014.19;;;7.62;100.00
16690;BME280;8458;52.220;9.884;2023-10-19T02:43:11;99014.69;;;7.64;100.00
16690;BME280;8458;52.220;9.884;2023-10-19T02:45:38;99017.47;;;7.64;100.00
16690;BME280;8458;52.220;9.884;2023-10-19T02:48:05;99004.78;;;7.63;100.00
16690;BME280;8458;52.220;9.884;2023-10-19T02:50:36;98995.91;;;7.66;100.00
16690;BME280;8458;52.220;9.884;2023-10-19T02:53:02;99006.72;;;7.63;100.00
16690;BME280;8458;52.220;9.884;2023-10-19T02:55:31;99002.56;;;7.65;100.00
16690;BME280;8458;52.220;9.884;2023-10-19T02:57:56;98992.34;;;7.66;100.00
16690;BME280;8458;52.220;9.884;2023-10-19T03:00:24;98990.69;;;7.65;100.00
16690;BME280;8458;52.220;9.884;2023-10-19T03:02:59;98986.03;;;7.60;100.00
16690;BME280;8458;52.220;9.884;2023-10-19T03:05:26;98988.78;;;7.60;100.00
16690;BME280;8458;52.220;9.884;2023-10-19T03:07:52;98990.44;;;7.61;100.00
16690;BME280;8458;52.220;9.884;2023-10-19T03:10:18;98985.75;;;7.62;100.00
16690;BME280;8458;52.220;9.884;2023-10-19T03:12:49;98988.78;;;7.60;100.00
16690;BME280;8458;52.220;9.884;2023-10-19T03:15:16;98991.03;;;7.58;100.00
16690;BME280;8458;52.220;9.884;2023-10-19T03:17:44;98976.13;;;7.59;100.00
16690;BME280;8458;52.220;9.884;2023-10-19T03:20:12;98973.38;;;7.59;100.00
16690;BME280;8458;52.220;9.884;2023-10-19T03:22:38;98970.63;;;7.59;100.00
16690;BME280;8458;52.220;9.884;2023-10-19T03:25:05;98962.88;;;7.61;100.00
16690;BME280;8458;52.220;9.884;2023-10-19T03:27:59;98948.78;;;7.63;100.00
16690;BME280;8458;52.220;9.884;2023-10-19T03:30:31;98964.25;;;7.59;100.00
16690;BME280;8458;52.220;9.884;2023-10-19T03:32:58;98965.09;;;7.59;100.00
16690;BME280;8458;52.220;9.884;2023-10-19T03:35:27;98952.41;;;7.58;100.00
16690;BME280;8458;52.220;9.884;2023-10-19T03:37:54;98949.66;;;7.58;100.00
16690;BME280;8458;52.220;9.884;2023-10-19T03:40:23;98951.31;;;7.54;100.00
16690;BME280;8458;52.220;9.884;2023-10-19T03:42:55;98946.06;;;7.58;100.00
16690;BME280;8458;52.220;9.884;2023-10-19T03:45:21;98940.56;;;7.58;100.00
16690;BME280;8458;52.220;9.884;2023-10-19T03:47:50;98946.06;;;7.58;100.00
16690;BME280;8458;52.220;9.884;2023-10-19T03:50:18;98940.84;;;7.56;100.00
16690;BME280;8458;52.220;9.884;2023-10-19T03:52:48;98934.78;;;7.54;100.00
16690;BME280;8458;52.220;9.884;2023-10-19T03:55:14;98923.72;;;7.59;100.00
16690;BME280;8458;52.220;9.884;2023-10-19T03:57:44;98927.59;;;7.58;100.00
16690;BME280;8458;52.220;9.884;2023-10-19T04:00:16;98922.59;;;7.60;100.00
16690;BME280;8458;52.220;9.884;2023-10-19T04:02:44;98916.84;;;7.57;100.00
16690;BME280;8458;52.220;9.884;2023-10-19T04:05:11;98914.09;;;7.57;100.00
16690;BME280;8458;52.220;9.884;2023-10-19T04:07:47;98916.03;;;7.56;100.00
16690;BME280;8458;52.220;9.884;2023-10-19T04:10:15;98919.88;;;7.55;100.00
16690;BME280;8458;52.220;9.884;2023-10-19T04:12:55;98920.41;;;7.57;100.00
16690;BME280;8458;52.220;9.884;2023-10-19T04:15:23;98911.56;;;7.60;100.00
16690;BME280;8458;52.220;9.884;2023-10-19T04:17:52;98907.19;;;7.59;100.00
16690;BME280;8458;52.220;9.884;2023-10-19T04:20:20;98902.22;;;7.56;100.00
16690;BME280;8458;52.220;9.884;2023-10-19T04:22:55;98903.34;;;7.55;100.00
16690;BME280;8458;52.220;9.884;2023-10-19T04:25:23;98905.81;;;7.57;100.00
16690;BME280;8458;52.220;9.884;2023-10-19T04:27:51;98905.56;;;7.53;100.00
16690;BME280;8458;52.220;9.884;2023-10-19T04:30:18;98904.44;;;7.54;100.00
16690;BME280;8458;52.220;9.884;2023-10-19T04:32:47;98898.91;;;7.54;100.00
16690;BME280;8458;52.220;9.884;2023-10-19T04:35:16;98902.81;;;7.53;100.00
16690;BME280;8458;52.220;9.884;2023-10-19T04:37:48;98896.16;;;7.54;100.00
16690;BME280;8458;52.220;9.884;2023-10-19T04:40:16;98897.28;;;7.53;100.00
16690;BME280;8458;52.220;9.884;2023-10-19T04:42:43;98885.41;;;7.52;100.00
16690;BME280;8458;52.220;9.884;2023-10-19T04:45:10;98881.56;;;7.53;100.00
16690;BME280;8458;52.220;9.884;2023-10-19T04:47:37;98878.81;;;7.53;100.00
16690;BME280;8458;52.220;9.884;2023-10-19T04:50:05;98869.72;;;7.53;100.00
16690;BME280;8458;52.220;9.884;2023-10-19T04:52:32;98872.50;;;7.48;100.00
16690;BME280;8458;52.220;9.884;2023-10-19T04:54:59;98871.41;;;7.49;100.00
16690;BME280;8458;52.220;9.884;2023-10-19T04:57:27;98869.16;;;7.51;100.00
16690;BME280;8458;52.220;9.884;2023-10-19T04:59:54;98865.88;;;7.49;100.00
16690;BME280;8458;52.220;9.884;2023-10-19T05:02:21;98859.84;;;7.47;100.00
16690;BME280;8458;52.220;9.884;2023-10-19T05:04:48;98859.25;;;7.50;100.00
16690;BME280;8458;52.220;9.884;2023-10-19T05:07:14;98856.78;;;7.48;100.00
16690;BME280;8458;52.220;9.884;2023-10-19T05:09:42;98849.09;;;7.45;100.00
16690;BME280;8458;52.220;9.884;2023-10-19T05:12:09;98839.97;;;7.45;100.00
16690;BME280;8458;52.220;9.884;2023-10-19T05:14:38;98850.50;;;7.43;100.00
16690;BME280;8458;52.220;9.884;2023-10-19T05:17:05;98851.34;;;7.38;100.00
16690;BME280;8458;52.220;9.884;2023-10-19T05:19:32;98848.31;;;7.40;100.00
16690;BME280;8458;52.220;9.884;2023-10-19T05:22:00;98849.97;;;7.41;100.00
16690;BME280;8458;52.220;9.884;2023-10-19T05:24:27;98847.22;;;7.41;100.00
16690;BME280;8458;52.220;9.884;2023-10-19T05:26:54;98856.00;;;7.43;100.00
16690;BME280;8458;52.220;9.884;2023-10-19T05:29:21;98841.13;;;7.44;100.00
16690;BME280;8458;52.220;9.884;2023-10-19T05:31:50;98847.72;;;7.43;100.00
16690;BME280;8458;52.220;9.884;2023-10-19T05:34:19;98852.72;;;7.41;100.00
16690;BME280;8458;52.220;9.884;2023-10-19T05:36:46;98854.34;;;7.42;100.00
16690;BME280;8458;52.220;9.884;2023-10-19T05:39:14;98859.28;;;7.45;100.00
16690;BME280;8458;52.220;9.884;2023-10-19T05:41:40;98864.28;;;7.43;100.00
16690;BME280;8458;52.220;9.884;2023-10-19T05:44:07;98865.38;;;7.42;100.00
16690;BME280;8458;52.220;9.884;2023-10-19T05:46:34;98869.56;;;7.39;100.00
16690;BME280;8458;52.220;9.884;2023-10-19T05:49:02;98867.91;;;7.38;100.00
16690;BME280;8458;52.220;9.884;2023-10-19T05:51:31;98863.19;;;7.39;100.00
16690;BME280;8458;52.220;9.884;2023-10-19T05:53:58;98861.53;;;7.43;100.00
16690;BME280;8458;52.220;9.884;2023-10-19T05:56:28;98864.81;;;7.45;100.00
16690;BME280;8458;52.220;9.884;2023-10-19T05:58:55;98872.53;;;7.43;100.00
16690;BME280;8458;52.220;9.884;2023-10-19T06:01:23;98873.06;;;7.45;100.00
16690;BME280;8458;52.220;9.884;2023-10-19T06:03:49;98873.91;;;7.45;100.00
16690;BME280;8458;52.220;9.884;2023-10-19T06:06:18;98868.69;;;7.44;100.00
16690;BME280;8458;52.220;9.884;2023-10-19T06:08:46;98875.00;;;7.44;100.00
16690;BME280;8458;52.220;9.884;2023-10-19T06:11:12;98871.97;;;7.46;100.00
16690;BME280;8458;52.220;9.884;2023-10-19T06:13:39;98871.16;;;7.45;100.00
16690;BME280;8458;52.220;9.884;2023-10-19T06:16:05;98875.25;;;7.48;100.00
16690;BME280;8458;52.220;9.884;2023-10-19T06:18:33;98885.47;;;7.47;100.00
16690;BME280;8458;52.220;9.884;2023-10-19T06:20:59;98882.44;;;7.49;100.00
16690;BME280;8458;52.220;9.884;2023-10-19T06:23:27;98887.41;;;7.47;100.00
16690;BME280;8458;52.220;9.884;2023-10-19T06:25:54;98879.16;;;7.47;100.00
16690;BME280;8458;52.220;9.884;2023-10-19T06:28:20;98876.91;;;7.49;100.00
16690;BME280;8458;52.220;9.884;2023-10-19T06:30:46;98881.03;;;7.51;100.00
16690;BME280;8458;52.220;9.884;2023-10-19T06:33:14;98866.69;;;7.49;100.00
16690;BME280;8458;52.220;9.884;2023-10-19T06:35:40;98865.88;;;7.49;100.00
16690;BME280;8458;52.220;9.884;2023-10-19T06:38:07;98861.19;;;7.49;100.00
16690;BME280;8458;52.220;9.884;2023-10-19T06:40:36;98862.03;;;7.50;100.00
16690;BME280;8458;52.220;9.884;2023-10-19T06:43:02;98862.59;;;7.47;100.00
16690;BME280;8458;52.220;9.884;2023-10-19T06:45:31;98864.22;;;7.48;100.00
16690;BME280;8458;52.220;9.884;2023-10-19T06:47:57;98865.88;;;7.49;100.00
16690;BME280;8458;52.220;9.884;2023-10-19T06:50:25;98854.63;;;7.45;100.00
16690;BME280;8458;52.220;9.884;2023-10-19T06:52:52;98864.22;;;7.48;100.00
16690;BME280;8458;52.220;9.884;2023-10-19T06:55:19;98853.19;;;7.48;100.00
16690;BME280;8458;52.220;9.884;2023-10-19T06:57:49;98852.63;;;7.51;100.00
16690;BME280;8458;52.220;9.884;2023-10-19T07:00:17;98870.81;;;7.52;100.00
16690;BME280;8458;52.220;9.884;2023-10-19T07:02:45;98858.13;;;7.51;100.00
16690;BME280;8458;52.220;9.884;2023-10-19T07:05:13;98862.84;;;7.50;100.00
16690;BME280;8458;52.220;9.884;2023-10-19T07:07:44;98854.28;;;7.52;100.00
16690;BME280;8458;52.220;9.884;2023-10-19T07:10:11;98858.69;;;7.53;100.00
16690;BME280;8458;52.220;9.884;2023-10-19T07:12:39;98852.03;;;7.54;100.00
16690;BME280;8458;52.220;9.884;2023-10-19T07:15:09;98860.88;;;7.56;100.00
16690;BME280;8458;52.220;9.884;2023-10-19T07:17:39;98860.28;;;7.59;100.00
16690;BME280;8458;52.220;9.884;2023-10-19T07:20:06;98845.38;;;7.60;100.00
16690;BME280;8458;52.220;9.884;2023-10-19T07:22:34;98848.66;;;7.62;100.00
16690;BME280;8458;52.220;9.884;2023-10-19T07:25:04;98858.56;;;7.68;100.00
16690;BME280;8458;52.220;9.884;2023-10-19T07:27:31;98863.47;;;7.71;100.00
16690;BME280;8458;52.220;9.884;2023-10-19T07:29:58;98857.69;;;7.73;100.00
16690;BME280;8458;52.220;9.884;2023-10-19T07:32:26;98857.38;;;7.75;100.00
16690;BME280;8458;52.220;9.884;2023-10-19T07:34:53;98862.06;;;7.74;100.00
16690;BME280;8458;52.220;9.884;2023-10-19T07:37:20;98851.03;;;7.74;100.00
16690;BME280;8458;52.220;9.884;2023-10-19T07:39:48;98847.16;;;7.75;100.00
16690;BME280;8458;52.220;9.884;2023-10-19T07:42:17;98847.16;;;7.75;100.00
16690;BME280;8458;52.220;9.884;2023-10-19T07:44:44;98855.72;;;7.74;100.00
16690;BME280;8458;52.220;9.884;2023-10-19T07:47:11;98864.31;;;7.72;100.00
16690;BME280;8458;52.220;9.884;2023-10-19T07:49:39;98866.75;;;7.74;100.00
16690;BME280;8458;52.220;9.884;2023-10-19T07:52:06;98860.66;;;7.77;100.00
16690;BME280;8458;52.220;9.884;2023-10-19T07:54:33;98854.88;;;7.78;100.00
16690;BME280;8458;52.220;9.884;2023-10-19T07:57:00;98849.56;;;7.82;100.00
16690;BME280;8458;52.220;9.884;2023-10-19T07:59:30;98853.69;;;7.84;100.00
16690;BME280;8458;52.220;9.884;2023-10-19T08:01:57;98855.66;;;7.84;100.00
16690;BME280;8458;52.220;9.884;2023-10-19T08:04:26;98848.47;;;7.83;100.00
16690;BME280;8458;52.220;9.884;2023-10-19T08:06:55;98852.88;;;7.84;100.00
16690;BME280;8458;52.220;9.884;2023-10-19T08:09:21;98854.50;;;7.85;100.00
16690;BME280;8458;52.220;9.884;2023-10-19T08:11:49;98850.13;;;7.84;100.00
16690;BME280;8458;52.220;9.884;2023-10-19T08:14:15;98839.59;;;7.86;100.00
16690;BME280;8458;52.220;9.884;2023-10-19T08:16:42;98847.88;;;7.86;100.00
16690;BME280;8458;52.220;9.884;2023-10-19T08:19:08;98842.88;;;7.88;100.00
16690;BME280;8458;52.220;9.884;2023-10-19T08:21:37;98847.00;;;7.90;100.00
16690;BME280;8458;52.220;9.884;2023-10-19T08:24:06;98852.81;;;7.89;100.00
16690;BME280;8458;52.220;9.884;2023-10-19T08:26:35;98860.81;;;7.90;100.00
16690;BME280;8458;52.220;9.884;2023-10-19T08:29:04;98854.72;;;7.94;100.00
16690;BME280;8458;52.220;9.884;2023-10-19T08:31:38;98851.94;;;7.94;100.00
16690;BME280;8458;52.220;9.884;2023-10-19T08:34:05;98860.47;;;7.97;100.00
16690;BME280;8458;52.220;9.884;2023-10-19T08:36:31;98854.13;;;7.97;100.00
16690;BME280;8458;52.220;9.884;2023-10-19T08:38:58;98852.69;;;7.99;100.00
16690;BME280;8458;52.220;9.884;2023-10-19T08:41:32;98864.59;;;8.00;100.00
16690;BME280;8458;52.220;9.884;2023-10-19T08:44:00;98863.44;;;8.01;100.00
16690;BME280;8458;52.220;9.884;2023-10-19T08:46:26;98868.66;;;8.02;100.00
16690;BME280;8458;52.220;9.884;2023-10-19T08:48:53;98871.97;;;8.04;100.00
16690;BME280;8458;52.220;9.884;2023-10-19T08:51:20;98876.91;;;8.07;100.00
16690;BME280;8458;52.220;9.884;2023-10-19T08:53:47;98871.41;;;8.07;100.00
16690;BME280;8458;52.220;9.884;2023-10-19T08:56:15;98868.63;;;8.07;100.00
16690;BME280;8458;52.220;9.884;2023-10-19T08:58:44;98870.81;;;8.11;100.00
16690;BME280;8458;52.220;9.884;2023-10-19T09:01:11;98873.00;;;8.14;100.00
16690;BME280;8458;52.220;9.884;2023-10-19T09:03:38;98863.06;;;8.13;100.00
16690;BME280;8458;52.220;9.884;2023-10-19T09:06:06;98854.84;;;8.07;100.00
16690;BME280;8458;52.220;9.884;2023-10-19T09:08:33;98856.13;;;8.15;100.00
16690;BME280;8458;52.220;9.884;2023-10-19T09:11:06;98854.69;;;8.18;100.00
16690;BME280;8458;52.220;9.884;2023-10-19T09:13:44;98847.50;;;8.22;100.00
16690;BME280;8458;52.220;9.884;2023-10-19T09:16:12;98844.13;;;8.25;100.00
16690;BME280;8458;52.220;9.884;2023-10-19T09:18:39;98845.22;;;8.29;100.00
16690;BME280;8458;52.220;9.884;2023-10-19T09:21:07;98841.84;;;8.32;100.00
16690;BME280;8458;52.220;9.884;2023-10-19T09:23:37;98837.38;;;8.36;100.00
16690;BME280;8458;52.220;9.884;2023-10-19T09:26:04;98834.03;;;8.39;100.00
16690;BME280;8458;52.220;9.884;2023-10-19T09:28:34;98818.53;;;8.43;100.00
16690;BME280;8458;52.220;9.884;2023-10-19T09:31:03;98829.03;;;8.41;100.00
16690;BME280;8458;52.220;9.884;2023-10-19T09:33:31;98837.59;;;8.45;100.00
16690;BME280;8458;52.220;9.884;2023-10-19T09:36:00;98832.88;;;8.46;100.00
16690;BME280;8458;52.220;9.884;2023-10-19T09:38:29;98832.28;;;8.49;100.00
16690;BME280;8458;52.220;9.884;2023-10-19T09:40:56;98832.56;;;8.47;100.00
16690;BME280;8458;52.220;9.884;2023-10-19T09:43:32;98838.41;;;8.46;100.00
16690;BME280;8458;52.220;9.884;2023-10-19T09:46:01;98832.28;;;8.49;100.00
16690;BME280;8458;52.220;9.884;2023-10-19T09:48:30;98826.41;;;8.55;100.00
16690;BME280;8458;52.220;9.884;2023-10-19T09:51:01;98835.50;;;8.56;100.00
16690;BME280;8458;52.220;9.884;2023-10-19T09:53:29;98825.56;;;8.55;100.00
16690;BME280;8458;52.220;9.884;2023-10-19T09:55:58;98829.09;;;8.60;100.00
16690;BME280;8458;52.220;9.884;2023-10-19T09:58:27;98818.25;;;8.64;100.00
16690;BME280;8458;52.220;9.884;2023-10-19T10:00:55;98816.63;;;8.63;100.00
16690;BME280;8458;52.220;9.884;2023-10-19T10:03:43;98820.50;;;8.62;100.00
16690;BME280;8458;52.220;9.884;2023-10-19T10:06:10;98833.81;;;8.60;100.00
16690;BME280;8458;52.220;9.884;2023-10-19T10:08:40;98823.88;;;8.59;100.00
16690;BME280;8458;52.220;9.884;2023-10-19T10:11:16;98831.56;;;8.62;100.00
16690;BME280;8458;52.220;9.884;2023-10-19T10:13:43;98835.97;;;8.63;100.00
16690;BME280;8458;52.220;9.884;2023-10-19T10:16:13;98832.06;;;8.64;100.00
16690;BME280;8458;52.220;9.884;2023-10-19T10:18:42;98838.97;;;8.67;100.00
16690;BME280;8458;52.220;9.884;2023-10-19T10:21:11;98826.50;;;8.69;100.00
16690;BME280;8458;52.220;9.884;2023-10-19T10:23:42;98817.31;;;8.74;100.00
16690;BME280;8458;52.220;9.884;2023-10-19T10:26:10;98814.25;;;8.75;100.00
16690;BME280;8458;52.220;9.884;2023-10-19T10:28:39;98820.81;;;8.79;100.00
16690;BME280;8458;52.220;9.884;2023-10-19T10:31:09;98816.94;;;8.81;100.00
16690;BME280;8458;52.220;9.884;2023-10-19T10:33:39;98800.88;;;8.83;100.00
16690;BME280;8458;52.220;9.884;2023-10-19T10:36:08;98792.59;;;8.83;100.00
16690;BME280;8458;52.220;9.884;2023-10-19T10:38:36;98793.13;;;8.85;100.00
16690;BME280;8458;52.220;9.884;2023-10-19T10:41:03;98785.66;;;8.85;100.00
16690;BME280;8458;52.220;9.884;2023-10-19T10:43:30;98796.41;;;8.87;100.00
16690;BME280;8458;52.220;9.884;2023-10-19T10:46:04;98788.91;;;8.87;100.00
16690;BME280;8458;52.220;9.884;2023-10-19T10:48:30;98794.16;;;8.89;100.00
16690;BME280;8458;52.220;9.884;2023-10-19T10:50:57;98789.16;;;8.91;100.00
16690;BME280;8458;52.220;9.884;2023-10-19T10:53:25;98794.09;;;8.94;100.00
16690;BME280;8458;52.220;9.884;2023-10-19T10:55:52;98793.50;;;8.97;100.00
16690;BME280;8458;52.220;9.884;2023-10-19T10:58:18;98788.78;;;8.97;100.00
16690;BME280;8458;52.220;9.884;2023-10-19T11:00:45;98792.88;;;9.00;100.00
16690;BME280;8458;52.220;9.884;2023-10-19T11:03:15;98792.28;;;9.03;100.00
16690;BME280;8458;52.220;9.884;2023-10-19T11:05:41;98787.78;;;9.07;100.00
16690;BME280;8458;52.220;9.884;2023-10-19T11:08:11;98770.38;;;9.07;100.00
16690;BME280;8458;52.220;9.884;2023-10-19T11:10:41;98782.50;;;9.11;100.00
16690;BME280;8458;52.220;9.884;2023-10-19T11:13:10;98788.22;;;9.14;100.00
16690;BME280;8458;52.220;9.884;2023-10-19T11:15:38;98778.59;;;9.12;100.00
16690;BME280;8458;52.220;9.884;2023-10-19T11:18:05;98766.63;;;9.17;100.00
16690;BME280;8458;52.220;9.884;2023-10-19T11:20:32;98776.56;;;9.18;100.00
16690;BME280;8458;52.220;9.884;2023-10-19T11:22:59;98786.41;;;9.24;100.00
16690;BME280;8458;52.220;9.884;2023-10-19T11:25:27;98782.50;;;9.25;100.00
16690;BME280;8458;52.220;9.884;2023-10-19T11:27:55;98770.84;;;9.28;100.00
16690;BME280;8458;52.220;9.884;2023-10-19T11:30:23;98778.03;;;9.29;100.00
16690;BME280;8458;52.220;9.884;2023-10-19T11:32:50;98778.78;;;9.35;100.00
16690;BME280;8458;52.220;9.884;2023-10-19T11:35:22;98778.47;;;9.36;100.00
16690;BME280;8458;52.220;9.884;2023-10-19T11:37:49;98772.34;;;9.39;100.00
16690;BME280;8458;52.220;9.884;2023-10-19T11:40:15;98769.78;;;9.43;100.00
16690;BME280;8458;52.220;9.884;2023-10-19T11:42:42;98768.97;;;9.42;100.00
16690;BME280;8458;52.220;9.884;2023-10-19T11:45:11;98765.59;;;9.45;100.00
16690;BME280;8458;52.220;9.884;2023-10-19T11:47:37;98768.34;;;9.45;100.00
16690;BME280;8458;52.220;9.884;2023-10-19T11:50:04;98780.13;;;9.51;100.00
16690;BME280;8458;52.220;9.884;2023-10-19T11:52:31;98768.75;;;9.52;100.00
16690;BME280;8458;52.220;9.884;2023-10-19T11:54:58;98774.59;;;9.51;100.00
16690;BME280;8458;52.220;9.884;2023-10-19T11:57:25;98786.41;;;9.57;100.00
16690;BME280;8458;52.220;9.884;2023-10-19T11:59:51;98782.53;;;9.58;100.00
16690;BME280;8458;52.220;9.884;2023-10-19T12:02:19;98774.13;;;9.63;100.00
16690;BME280;8458;52.220;9.884;2023-10-19T12:04:46;98761.41;;;9.62;100.00
16690;BME280;8458;52.220;9.884;2023-10-19T12:07:13;98760.28;;;9.63;100.00
16690;BME280;8458;52.220;9.884;2023-10-19T12:09:39;98768.28;;;9.64;100.00
16690;BME280;8458;52.220;9.884;2023-10-19T12:12:06;98767.16;;;9.65;100.00
16690;BME280;8458;52.220;9.884;2023-10-19T12:14:34;98765.22;;;9.66;100.00
16690;BME280;8458;52.220;9.884;2023-10-19T12:17:01;98769.00;;;9.70;100.00
16690;BME280;8458;52.220;9.884;2023-10-19T12:19:29;98764.59;;;9.69;100.00
16690;BME280;8458;52.220;9.884;2023-10-19T12:21:56;98758.25;;;9.68;100.00
16690;BME280;8458;52.220;9.884;2023-10-19T12:24:22;98761.81;;;9.69;100.00
16690;BME280;8458;52.220;9.884;2023-10-19T12:26:53;98768.16;;;9.69;100.00
16690;BME280;8458;52.220;9.884;2023-10-19T12:29:19;98762.88;;;9.73;100.00
16690;BME280;8458;52.220;9.884;2023-10-19T12:31:46;98759.50;;;9.76;100.00
16690;BME280;8458;52.220;9.884;2023-10-19T12:34:13;98754.97;;;9.80;100.00
16690;BME280;8458;52.220;9.884;2023-10-19T12:36:42;98752.72;;;9.82;100.00
16690;BME280;8458;52.220;9.884;2023-10-19T12:39:11;98749.97;;;9.82;100.00
16690;BME280;8458;52.220;9.884;2023-10-19T12:41:59;98757.41;;;9.82;100.00
16690;BME280;8458;52.220;9.884;2023-10-19T12:44:26;98769.84;;;9.84;100.00
16690;BME280;8458;52.220;9.884;2023-10-19T12:46:54;98762.16;;;9.81;100.00
16690;BME280;8458;52.220;9.884;2023-10-19T12:49:22;98748.81;;;9.83;100.00
16690;BME280;8458;52.220;9.884;2023-10-19T12:51:52;98745.75;;;9.85;100.00
16690;BME280;8458;52.220;9.884;2023-10-19T12:54:19;98750.47;;;9.84;100.00
16690;BME280;8458;52.220;9.884;2023-10-19T12:56:46;98749.66;;;9.84;100.00
16690;BME280;8458;52.220;9.884;2023-10-19T12:59:14;98748.81;;;9.83;100.00
16690;BME280;8458;52.220;9.884;2023-10-19T13:01:43;98756.00;;;9.84;100.00
16690;BME280;8458;52.220;9.884;2023-10-19T13:04:13;98749.84;;;9.87;100.00
16690;BME280;8458;52.220;9.884;2023-10-19T13:06:42;98745.34;;;9.92;100.00
16690;BME280;8458;52.220;9.884;2023-10-19T13:09:10;98740.94;;;9.91;100.00
16690;BME280;8458;52.220;9.884;2023-10-19T13:11:36;98735.91;;;9.93;100.00
16690;BME280;8458;52.220;9.884;2023-10-19T13:14:08;98739.81;;;9.92;100.00
16690;BME280;8458;52.220;9.884;2023-10-19T13:16:35;98742.59;;;9.92;100.00